sensor_id;sensor_type;location;lat;lon;timestamp;pressure;altitude;pressure_sealevel;temperature;humidity
20424;BME280;10371;49.042;8.002;2024-03-22T00:00:00;100596.84;;;9.45;100.00
20424;BME280;10371;49.042;8.002;2024-03-22T00:01:01;100600.28;;;9.46;100.00
20424;BME280;10371;49.042;8.002;2024-03-22T00:02:01;100591.66;;;9.45;100.00
20424;BME280;10371;49.042;8.002;2024-03-22T00:03:01;100600.28;;;9.46;100.00
20424;BME280;10371;49.042;8.002;2024-03-22T00:04:01;100590.72;;;9.46;100.00
20424;BME280;10371;49.042;8.002;2024-03-22T00:05:02;100587.28;;;9.46;100.00
20424;BME280;10371;49.042;8.002;2024-03-22T00:06:02;100584.69;;;9.46;100.00
20424;BME280;10371;49.042;8.002;2024-03-22T00:07:03;100583.75;;;9.47;100.00
20424;BME280;10371;49.042;8.002;2024-03-22T00:08:04;100584.69;;;9.46;100.00
20424;BME280;10371;49.042;8.002;2024-03-22T00:09:04;100583.75;;;9.47;100.00
20424;BME280;10371;49.042;8.002;2024-03-22T00:10:06;100585.63;;;9.45;100.00
20424;BME280;10371;49.042;8.002;2024-03-22T00:11:06;100581.47;;;9.42;100.00
20424;BME280;10371;49.042;8.002;2024-03-22T00:12:06;100587.69;;;9.39;100.00
20424;BME280;10371;49.042;8.002;2024-03-22T00:13:07;100584.41;;;9.36;100.00
20424;BME280;10371;49.042;8.002;2024-03-22T00:14:08;100578.41;;;9.35;100.00
20424;BME280;10371;49.042;8.002;2024-03-22T00:15:08;100573.19;;;9.35;100.00
20424;BME280;10371;49.042;8.002;2024-03-22T00:16:09;100574.88;;;9.36;100.00
20424;BME280;10371;49.042;8.002;2024-03-22T00:17:09;100573.19;;;9.35;100.00
20424;BME280;10371;49.042;8.002;2024-03-22T00:18:09;100571.44;;;9.36;100.00
20424;BME280;10371;49.042;8.002;2024-03-22T00:19:10;100573.50;;;9.31;100.00
20424;BME280;10371;49.042;8.002;2024-03-22T00:20:10;100574.34;;;9.31;100.00
20424;BME280;10371;49.042;8.002;2024-03-22T00:21:10;100574.41;;;9.30;100.00
20424;BME280;10371;49.042;8.002;2024-03-22T00:22:11;100566.53;;;9.31;100.00
20424;BME280;10371;49.042;8.002;2024-03-22T00:23:11;100570.06;;;9.30;100.00
20424;BME280;10371;49.042;8.002;2024-03-22T00:24:11;100570.06;;;9.30;100.00
20424;BME280;10371;49.042;8.002;2024-03-22T00:25:11;100570.91;;;9.31;100.00
20424;BME280;10371;49.042;8.002;2024-03-22T00:26:12;100568.31;;;9.31;100.00
20424;BME280;10371;49.042;8.002;2024-03-22T00:27:12;100560.59;;;9.29;100.00
20424;BME280;10371;49.042;8.002;2024-03-22T00:28:12;100565.78;;;9.29;100.00
20424;BME280;10371;49.042;8.002;2024-03-22T00:29:13;100558.81;;;9.30;100.00
20424;BME280;10371;49.042;8.002;2024-03-22T00:30:13;100557.19;;;9.29;100.00
20424;BME280;10371;49.042;8.002;2024-03-22T00:31:14;100558.94;;;9.28;100.00
20424;BME280;10371;49.042;8.002;2024-03-22T00:32:15;100560.78;;;9.26;100.00
20424;BME280;10371;49.042;8.002;2024-03-22T00:33:16;100554.66;;;9.27;100.00
20424;BME280;10371;49.042;8.002;2024-03-22T00:34:16;100553.81;;;9.27;100.00
20424;BME280;10371;49.042;8.002;2024-03-22T00:35:16;100554.84;;;9.24;100.00
20424;BME280;10371;49.042;8.002;2024-03-22T00:36:16;100550.59;;;9.23;100.00
20424;BME280;10371;49.042;8.002;2024-03-22T00:37:17;100553.41;;;9.20;100.00
20424;BME280;10371;49.042;8.002;2024-03-22T00:38:17;100550.16;;;9.16;100.00
20424;BME280;10371;49.042;8.002;2024-03-22T00:39:17;100548.59;;;9.14;100.00
20424;BME280;10371;49.042;8.002;2024-03-22T00:40:17;100552.94;;;9.13;100.00
20424;BME280;10371;49.042;8.002;2024-03-22T00:41:18;100547.09;;;9.10;100.00
20424;BME280;10371;49.042;8.002;2024-03-22T00:42:18;100549.69;;;9.10;100.00
20424;BME280;10371;49.042;8.002;2024-03-22T00:43:22;100553.31;;;9.07;100.00
20424;BME280;10371;49.042;8.002;2024-03-22T00:44:22;100548.25;;;9.06;100.00
20424;BME280;10371;49.042;8.002;2024-03-22T00:45:22;100552.88;;;9.01;100.00
20424;BME280;10371;49.042;8.002;2024-03-22T00:46:23;100546.94;;;8.99;100.00
20424;BME280;10371;49.042;8.002;2024-03-22T00:47:23;100547.97;;;8.96;100.00
20424;BME280;10371;49.042;8.002;2024-03-22T00:48:24;100546.38;;;8.93;100.00
20424;BME280;10371;49.042;8.002;2024-03-22T00:49:24;100543.06;;;8.91;100.00
20424;BME280;10371;49.042;8.002;2024-03-22T00:50:24;100544.94;;;8.89;100.00
20424;BME280;10371;49.042;8.002;2024-03-22T00:51:28;100541.59;;;8.87;100.00
20424;BME280;10371;49.042;8.002;2024-03-22T00:52:28;100539.19;;;8.84;100.00
20424;BME280;10371;49.042;8.002;2024-03-22T00:53:29;100539.06;;;8.86;100.00
20424;BME280;10371;49.042;8.002;2024-03-22T00:54:30;100539.25;;;8.83;100.00
20424;BME280;10371;49.042;8.002;2024-03-22T00:55:30;100541.03;;;8.82;100.00
20424;BME280;10371;49.042;8.002;2024-03-22T00:56:30;100536.84;;;8.80;100.00
20424;BME280;10371;49.042;8.002;2024-03-22T00:57:31;100536.97;;;8.78;100.00
20424;BME280;10371;49.042;8.002;2024-03-22T00:58:31;100538.00;;;8.76;100.00
20424;BME280;10371;49.042;8.002;2024-03-22T00:59:31;100533.81;;;8.73;100.00
20424;BME280;10371;49.042;8.002;2024-03-22T01:00:32;100526.28;;;8.68;100.00
20424;BME280;10371;49.042;8.002;2024-03-22T01:01:32;100525.47;;;8.68;100.00
20424;BME280;10371;49.042;8.002;2024-03-22T01:02:32;100528.06;;;8.68;100.00
20424;BME280;10371;49.042;8.002;2024-03-22T01:03:32;100523.81;;;8.67;100.00
20424;BME280;10371;49.042;8.002;2024-03-22T01:04:33;100529.91;;;8.66;100.00
20424;BME280;10371;49.042;8.002;2024-03-22T01:05:33;100527.44;;;8.64;100.00
20424;BME280;10371;49.042;8.002;2024-03-22T01:06:34;100524.84;;;8.64;100.00
20424;BME280;10371;49.042;8.002;2024-03-22T01:07:35;100524.16;;;8.61;100.00
20424;BME280;10371;49.042;8.002;2024-03-22T01:08:35;100518.25;;;8.59;100.00
20424;BME280;10371;49.042;8.002;2024-03-22T01:09:36;100524.16;;;8.61;100.00
20424;BME280;10371;49.042;8.002;2024-03-22T01:10:36;100524.91;;;8.63;100.00
20424;BME280;10371;49.042;8.002;2024-03-22T01:11:36;100518.97;;;8.61;100.00
20424;BME280;10371;49.042;8.002;2024-03-22T01:12:37;100522.50;;;8.60;100.00
20424;BME280;10371;49.042;8.002;2024-03-22T01:13:38;100522.50;;;8.60;100.00
20424;BME280;10371;49.042;8.002;2024-03-22T01:14:39;100518.34;;;8.57;100.00
20424;BME280;10371;49.042;8.002;2024-03-22T01:15:39;100526.03;;;8.59;100.00
20424;BME280;10371;49.042;8.002;2024-03-22T01:16:39;100516.56;;;8.58;100.00
20424;BME280;10371;49.042;8.002;2024-03-22T01:17:40;100519.28;;;8.56;100.00
20424;BME280;10371;49.042;8.002;2024-03-22T01:18:41;100513.25;;;8.56;100.00
20424;BME280;10371;49.042;8.002;2024-03-22T01:19:41;100512.31;;;8.57;100.00
20424;BME280;10371;49.042;8.002;2024-03-22T01:20:41;100508.16;;;8.54;100.00
20424;BME280;10371;49.042;8.002;2024-03-22T01:21:42;100506.56;;;8.52;100.00
20424;BME280;10371;49.042;8.002;2024-03-22T01:22:42;100508.41;;;8.49;100.00
20424;BME280;10371;49.042;8.002;2024-03-22T01:23:42;100506.88;;;8.47;100.00
20424;BME280;10371;49.042;8.002;2024-03-22T01:24:43;100507.78;;;8.46;100.00
20424;BME280;10371;49.042;8.002;2024-03-22T01:25:45;100507.69;;;8.47;100.00
20424;BME280;10371;49.042;8.002;2024-03-22T01:26:45;100506.94;;;8.45;100.00
20424;BME280;10371;49.042;8.002;2024-03-22T01:27:45;100506.31;;;8.42;100.00
20424;BME280;10371;49.042;8.002;2024-03-22T01:28:46;100508.91;;;8.42;100.00
20424;BME280;10371;49.042;8.002;2024-03-22T01:29:46;100507.22;;;8.41;100.00
20424;BME280;10371;49.042;8.002;2024-03-22T01:30:47;100501.13;;;8.42;100.00
20424;BME280;10371;49.042;8.002;2024-03-22T01:31:48;100502.78;;;8.43;100.00
20424;BME280;10371;49.042;8.002;2024-03-22T01:32:48;100506.00;;;8.46;100.00
20424;BME280;10371;49.042;8.002;2024-03-22T01:33:48;100497.41;;;8.46;100.00
20424;BME280;10371;49.042;8.002;2024-03-22T01:34:48;100494.81;;;8.46;100.00
20424;BME280;10371;49.042;8.002;2024-03-22T01:35:49;100500.00;;;8.46;100.00
20424;BME280;10371;49.042;8.002;2024-03-22T01:36:50;100498.16;;;8.48;100.00
20424;BME280;10371;49.042;8.002;2024-03-22T01:37:50;100500.81;;;8.46;100.00
20424;BME280;10371;49.042;8.002;2024-03-22T01:38:50;100498.16;;;8.48;100.00
20424;BME280;10371;49.042;8.002;2024-03-22T01:39:50;100497.88;;;8.53;100.00
20424;BME280;10371;49.042;8.002;2024-03-22T01:40:51;100495.81;;;8.58;100.00
20424;BME280;10371;49.042;8.002;2024-03-22T01:41:51;100490.34;;;8.62;100.00
20424;BME280;10371;49.042;8.002;2024-03-22T01:42:57;100486.66;;;8.66;100.00
20424;BME280;10371;49.042;8.002;2024-03-22T01:43:58;100488.03;;;8.72;100.00
20424;BME280;10371;49.042;8.002;2024-03-22T01:44:58;100481.06;;;8.72;100.00
20424;BME280;10371;49.042;8.002;2024-03-22T01:45:59;100491.16;;;8.77;100.00
20424;BME280;10371;49.042;8.002;2024-03-22T01:46:59;100488.53;;;8.77;100.00
20424;BME280;10371;49.042;8.002;2024-03-22T01:48:00;100480.69;;;8.79;100.00
20424;BME280;10371;49.042;8.002;2024-03-22T01:49:01;100483.91;;;8.82;100.00
20424;BME280;10371;49.042;8.002;2024-03-22T01:50:01;100480.28;;;8.85;100.00
20424;BME280;10371;49.042;8.002;2024-03-22T01:51:02;100481.84;;;8.87;100.00
20424;BME280;10371;49.042;8.002;2024-03-22T01:52:04;100479.25;;;8.87;100.00
20424;BME280;10371;49.042;8.002;2024-03-22T01:53:04;100480.00;;;8.89;100.00
20424;BME280;10371;49.042;8.002;2024-03-22T01:54:08;100474.69;;;8.91;100.00
20424;BME280;10371;49.042;8.002;2024-03-22T01:55:08;100475.56;;;8.91;100.00
20424;BME280;10371;49.042;8.002;2024-03-22T01:56:09;100470.16;;;8.94;100.00
20424;BME280;10371;49.042;8.002;2024-03-22T01:57:10;100467.66;;;8.93;100.00
20424;BME280;10371;49.042;8.002;2024-03-22T01:58:11;100467.38;;;8.98;100.00
20424;BME280;10371;49.042;8.002;2024-03-22T01:59:12;100459.59;;;8.98;100.00
20424;BME280;10371;49.042;8.002;2024-03-22T02:00:13;100462.81;;;9.01;100.00
20424;BME280;10371;49.042;8.002;2024-03-22T02:01:14;100462.72;;;9.03;100.00
20424;BME280;10371;49.042;8.002;2024-03-22T02:02:14;100465.94;;;9.06;100.00
20424;BME280;10371;49.042;8.002;2024-03-22T02:03:15;100456.38;;;9.07;100.00
20424;BME280;10371;49.042;8.002;2024-03-22T02:04:15;100458.91;;;9.08;100.00
20424;BME280;10371;49.042;8.002;2024-03-22T02:05:17;100464.72;;;9.12;100.00
20424;BME280;10371;49.042;8.002;2024-03-22T02:06:21;100457.03;;;9.10;100.00
20424;BME280;10371;49.042;8.002;2024-03-22T02:07:21;100462.22;;;9.10;100.00
20424;BME280;10371;49.042;8.002;2024-03-22T02:08:22;100463.97;;;9.10;100.00
20424;BME280;10371;49.042;8.002;2024-03-22T02:09:22;100458.16;;;9.06;100.00
20424;BME280;10371;49.042;8.002;2024-03-22T02:10:22;100463.97;;;9.10;100.00
20424;BME280;10371;49.042;8.002;2024-03-22T02:11:23;100463.97;;;9.10;100.00
20424;BME280;10371;49.042;8.002;2024-03-22T02:12:23;100463.25;;;9.08;100.00
20424;BME280;10371;49.042;8.002;2024-03-22T02:13:23;100461.78;;;9.04;100.00
20424;BME280;10371;49.042;8.002;2024-03-22T02:14:24;100464.38;;;9.04;100.00
20424;BME280;10371;49.042;8.002;2024-03-22T02:15:25;100459.28;;;9.02;100.00
20424;BME280;10371;49.042;8.002;2024-03-22T02:16:25;100461.97;;;9.01;100.00
20424;BME280;10371;49.042;8.002;2024-03-22T02:17:26;100457.69;;;9.00;100.00
20424;BME280;10371;49.042;8.002;2024-03-22T02:18:26;100461.97;;;9.01;100.00
20424;BME280;10371;49.042;8.002;2024-03-22T02:19:26;100459.38;;;9.01;100.00
20424;BME280;10371;49.042;8.002;2024-03-22T02:20:26;100463.56;;;9.03;100.00
20424;BME280;10371;49.042;8.002;2024-03-22T02:21:27;100459.94;;;9.06;100.00
20424;BME280;10371;49.042;8.002;2024-03-22T02:22:27;100464.09;;;9.08;100.00
20424;BME280;10371;49.042;8.002;2024-03-22T02:24:34;100451.94;;;9.09;100.00
20424;BME280;10371;49.042;8.002;2024-03-22T02:25:34;100453.59;;;9.10;100.00
20424;BME280;10371;49.042;8.002;2024-03-22T02:26:34;100453.59;;;9.10;100.00
20424;BME280;10371;49.042;8.002;2024-03-22T02:27:34;100440.53;;;9.11;100.00
20424;BME280;10371;49.042;8.002;2024-03-22T02:28:35;100443.81;;;9.13;100.00
20424;BME280;10371;49.042;8.002;2024-03-22T02:29:36;100449.88;;;9.14;100.00
20424;BME280;10371;49.042;8.002;2024-03-22T02:30:36;100448.13;;;9.14;100.00
20424;BME280;10371;49.042;8.002;2024-03-22T02:31:36;100446.25;;;9.16;100.00
20424;BME280;10371;49.042;8.002;2024-03-22T02:32:36;100449.69;;;9.17;100.00
20424;BME280;10371;49.042;8.002;2024-03-22T02:33:39;100446.97;;;9.18;100.00
20424;BME280;10371;49.042;8.002;2024-03-22T02:34:39;100446.97;;;9.18;100.00
20424;BME280;10371;49.042;8.002;2024-03-22T02:35:39;100447.78;;;9.19;100.00
20424;BME280;10371;49.042;8.002;2024-03-22T02:36:40;100448.66;;;9.20;100.00
20424;BME280;10371;49.042;8.002;2024-03-22T02:37:40;100450.31;;;9.21;100.00
20424;BME280;10371;49.042;8.002;2024-03-22T02:38:40;100447.78;;;9.19;100.00
20424;BME280;10371;49.042;8.002;2024-03-22T02:39:40;100446.13;;;9.18;100.00
20424;BME280;10371;49.042;8.002;2024-03-22T02:40:43;100445.19;;;9.19;100.00
20424;BME280;10371;49.042;8.002;2024-03-22T02:41:43;100442.59;;;9.19;100.00
20424;BME280;10371;49.042;8.002;2024-03-22T02:42:44;100445.94;;;9.21;100.00
20424;BME280;10371;49.042;8.002;2024-03-22T02:43:44;100440.75;;;9.21;100.00
20424;BME280;10371;49.042;8.002;2024-03-22T02:44:44;100443.25;;;9.23;100.00
20424;BME280;10371;49.042;8.002;2024-03-22T02:45:45;100437.94;;;9.24;100.00
20424;BME280;10371;49.042;8.002;2024-03-22T02:46:46;100443.13;;;9.24;100.00
20424;BME280;10371;49.042;8.002;2024-03-22T02:47:46;100435.34;;;9.24;100.00
20424;BME280;10371;49.042;8.002;2024-03-22T02:48:46;100444.81;;;9.25;100.00
20424;BME280;10371;49.042;8.002;2024-03-22T02:49:47;100442.22;;;9.25;100.00
20424;BME280;10371;49.042;8.002;2024-03-22T02:50:47;100449.06;;;9.26;100.00
20424;BME280;10371;49.042;8.002;2024-03-22T02:51:47;100443.88;;;9.26;100.00
20424;BME280;10371;49.042;8.002;2024-03-22T02:52:51;100452.41;;;9.28;100.00
20424;BME280;10371;49.042;8.002;2024-03-22T02:53:51;100448.03;;;9.29;100.00
20424;BME280;10371;49.042;8.002;2024-03-22T02:54:51;100447.94;;;9.30;100.00
20424;BME280;10371;49.042;8.002;2024-03-22T02:55:51;100456.59;;;9.31;100.00
20424;BME280;10371;49.042;8.002;2024-03-22T02:56:52;100447.00;;;9.31;100.00
20424;BME280;10371;49.042;8.002;2024-03-22T02:57:52;100442.66;;;9.32;100.00
20424;BME280;10371;49.042;8.002;2024-03-22T02:58:52;100449.50;;;9.33;100.00
20424;BME280;10371;49.042;8.002;2024-03-22T02:59:52;100446.81;;;9.34;100.00
20424;BME280;10371;49.042;8.002;2024-03-22T03:00:53;100445.97;;;9.34;100.00
20424;BME280;10371;49.042;8.002;2024-03-22T03:01:53;100449.41;;;9.34;100.00
20424;BME280;10371;49.042;8.002;2024-03-22T03:02:53;100447.44;;;9.38;100.00
20424;BME280;10371;49.042;8.002;2024-03-22T03:03:53;100452.53;;;9.39;100.00
20424;BME280;10371;49.042;8.002;2024-03-22T03:04:54;100449.94;;;9.39;100.00
20424;BME280;10371;49.042;8.002;2024-03-22T03:05:54;100444.53;;;9.43;100.00
20424;BME280;10371;49.042;8.002;2024-03-22T03:06:54;100444.53;;;9.43;100.00
20424;BME280;10371;49.042;8.002;2024-03-22T03:07:56;100446.19;;;9.44;100.00
20424;BME280;10371;49.042;8.002;2024-03-22T03:08:56;100450.47;;;9.45;100.00
20424;BME280;10371;49.042;8.002;2024-03-22T03:09:56;100444.53;;;9.43;100.00
20424;BME280;10371;49.042;8.002;2024-03-22T03:10:56;100444.53;;;9.43;100.00
20424;BME280;10371;49.042;8.002;2024-03-22T03:11:57;100441.94;;;9.43;100.00
20424;BME280;10371;49.042;8.002;2024-03-22T03:12:57;100437.03;;;9.38;100.00
20424;BME280;10371;49.042;8.002;2024-03-22T03:13:58;100433.06;;;9.32;100.00
20424;BME280;10371;49.042;8.002;2024-03-22T03:14:58;100440.13;;;9.30;100.00
20424;BME280;10371;49.042;8.002;2024-03-22T03:15:58;100439.44;;;9.28;100.00
20424;BME280;10371;49.042;8.002;2024-03-22T03:16:58;100432.88;;;9.23;100.00
20424;BME280;10371;49.042;8.002;2024-03-22T03:17:59;100432.88;;;9.23;100.00
20424;BME280;10371;49.042;8.002;2024-03-22T03:18:59;100428.59;;;9.22;100.00
20424;BME280;10371;49.042;8.002;2024-03-22T03:20:00;100426.94;;;9.21;100.00
20424;BME280;10371;49.042;8.002;2024-03-22T03:21:00;100431.19;;;9.22;100.00
20424;BME280;10371;49.042;8.002;2024-03-22T03:22:00;100431.19;;;9.22;100.00
20424;BME280;10371;49.042;8.002;2024-03-22T03:23:01;100437.13;;;9.24;100.00
20424;BME280;10371;49.042;8.002;2024-03-22T03:24:01;100430.97;;;9.25;100.00
20424;BME280;10371;49.042;8.002;2024-03-22T03:25:03;100435.13;;;9.27;100.00
20424;BME280;10371;49.042;8.002;2024-03-22T03:26:04;100433.28;;;9.29;100.00
20424;BME280;10371;49.042;8.002;2024-03-22T03:27:04;100432.25;;;9.32;100.00
20424;BME280;10371;49.042;8.002;2024-03-22T03:28:05;100429.56;;;9.33;100.00
20424;BME280;10371;49.042;8.002;2024-03-22T03:29:07;100426.03;;;9.34;100.00
20424;BME280;10371;49.042;8.002;2024-03-22T03:30:08;100430.28;;;9.35;100.00
20424;BME280;10371;49.042;8.002;2024-03-22T03:31:08;100424.88;;;9.38;100.00
20424;BME280;10371;49.042;8.002;2024-03-22T03:32:08;100426.56;;;9.39;100.00
20424;BME280;10371;49.042;8.002;2024-03-22T03:33:08;100430.72;;;9.42;100.00
20424;BME280;10371;49.042;8.002;2024-03-22T03:34:09;100427.09;;;9.45;100.00
20424;BME280;10371;49.042;8.002;2024-03-22T03:35:09;100422.72;;;9.45;100.00
20424;BME280;10371;49.042;8.002;2024-03-22T03:36:09;100422.59;;;9.47;100.00
20424;BME280;10371;49.042;8.002;2024-03-22T03:37:09;100425.13;;;9.48;100.00
20424;BME280;10371;49.042;8.002;2024-03-22T03:38:10;100424.09;;;9.51;100.00
20424;BME280;10371;49.042;8.002;2024-03-22T03:39:10;100423.13;;;9.52;100.00
20424;BME280;10371;49.042;8.002;2024-03-22T03:40:11;100423.97;;;9.52;100.00
20424;BME280;10371;49.042;8.002;2024-03-22T03:41:11;100421.28;;;9.54;100.00
20424;BME280;10371;49.042;8.002;2024-03-22T03:42:11;100422.94;;;9.55;100.00
20424;BME280;10371;49.042;8.002;2024-03-22T03:43:11;100422.84;;;9.56;100.00
20424;BME280;10371;49.042;8.002;2024-03-22T03:44:12;100421.28;;;9.54;100.00
20424;BME280;10371;49.042;8.002;2024-03-22T03:45:12;100424.69;;;9.54;100.00
20424;BME280;10371;49.042;8.002;2024-03-22T03:46:13;100418.97;;;9.49;100.00
20424;BME280;10371;49.042;8.002;2024-03-22T03:47:13;100417.19;;;9.50;100.00
20424;BME280;10371;49.042;8.002;2024-03-22T03:48:13;100414.81;;;9.47;100.00
20424;BME280;10371;49.042;8.002;2024-03-22T03:49:13;100421.97;;;9.43;100.00
20424;BME280;10371;49.042;8.002;2024-03-22T03:50:14;100418.75;;;9.39;100.00
20424;BME280;10371;49.042;8.002;2024-03-22T03:51:14;100415.44;;;9.37;100.00
20424;BME280;10371;49.042;8.002;2024-03-22T03:52:14;100421.44;;;9.38;100.00
20424;BME280;10371;49.042;8.002;2024-03-22T03:53:14;100413.97;;;9.33;100.00
20424;BME280;10371;49.042;8.002;2024-03-22T03:54:15;100414.81;;;9.34;100.00
20424;BME280;10371;49.042;8.002;2024-03-22T03:55:16;100418.31;;;9.33;100.00
20424;BME280;10371;49.042;8.002;2024-03-22T03:56:16;100421.03;;;9.31;100.00
20424;BME280;10371;49.042;8.002;2024-03-22T03:57:16;100420.09;;;9.32;100.00
20424;BME280;10371;49.042;8.002;2024-03-22T03:58:16;100417.41;;;9.34;100.00
20424;BME280;10371;49.042;8.002;2024-03-22T03:59:18;100413.84;;;9.35;100.00
20424;BME280;10371;49.042;8.002;2024-03-22T04:00:19;100415.44;;;9.37;100.00
20424;BME280;10371;49.042;8.002;2024-03-22T04:01:19;100402.50;;;9.36;100.00
20424;BME280;10371;49.042;8.002;2024-03-22T04:02:20;100405.03;;;9.37;100.00
20424;BME280;10371;49.042;8.002;2024-03-22T04:03:22;100408.47;;;9.38;100.00
20424;BME280;10371;49.042;8.002;2024-03-22T04:04:22;100408.47;;;9.38;100.00
20424;BME280;10371;49.042;8.002;2024-03-22T04:05:23;100410.22;;;9.37;100.00
20424;BME280;10371;49.042;8.002;2024-03-22T04:06:23;100411.88;;;9.38;100.00
20424;BME280;10371;49.042;8.002;2024-03-22T04:07:23;100416.88;;;9.42;100.00
20424;BME280;10371;49.042;8.002;2024-03-22T04:08:25;100411.66;;;9.42;100.00
20424;BME280;10371;49.042;8.002;2024-03-22T04:09:26;100412.75;;;9.39;100.00
20424;BME280;10371;49.042;8.002;2024-03-22T04:10:26;100413.56;;;9.39;100.00
20424;BME280;10371;49.042;8.002;2024-03-22T04:11:26;100415.63;;;9.34;100.00
20424;BME280;10371;49.042;8.002;2024-03-22T04:12:26;100410.63;;;9.31;100.00
20424;BME280;10371;49.042;8.002;2024-03-22T04:13:27;100414.34;;;9.27;100.00
20424;BME280;10371;49.042;8.002;2024-03-22T04:14:27;100414.56;;;9.24;100.00
20424;BME280;10371;49.042;8.002;2024-03-22T04:15:27;100419.22;;;9.19;100.00
20424;BME280;10371;49.042;8.002;2024-03-22T04:16:28;100410.81;;;9.15;100.00
20424;BME280;10371;49.042;8.002;2024-03-22T04:17:28;100410.19;;;9.12;100.00
20424;BME280;10371;49.042;8.002;2024-03-22T04:18:28;100411.94;;;9.11;100.00
20424;BME280;10371;49.042;8.002;2024-03-22T04:19:29;100412.78;;;9.12;100.00
20424;BME280;10371;49.042;8.002;2024-03-22T04:20:29;100404.16;;;9.11;100.00
20424;BME280;10371;49.042;8.002;2024-03-22T04:21:29;100409.22;;;9.13;100.00
20424;BME280;10371;49.042;8.002;2024-03-22T04:22:29;100404.78;;;9.15;100.00
20424;BME280;10371;49.042;8.002;2024-03-22T04:23:30;100405.59;;;9.15;100.00
20424;BME280;10371;49.042;8.002;2024-03-22T04:24:30;100411.53;;;9.17;100.00
20424;BME280;10371;49.042;8.002;2024-03-22T04:25:30;100409.78;;;9.18;100.00
20424;BME280;10371;49.042;8.002;2024-03-22T04:26:31;100414.22;;;9.16;100.00
20424;BME280;10371;49.042;8.002;2024-03-22T04:27:31;100407.38;;;9.15;100.00
20424;BME280;10371;49.042;8.002;2024-03-22T04:28:31;100407.28;;;9.16;100.00
20424;BME280;10371;49.042;8.002;2024-03-22T04:29:32;100407.28;;;9.16;100.00
20424;BME280;10371;49.042;8.002;2024-03-22T04:30:32;100409.88;;;9.16;100.00
20424;BME280;10371;49.042;8.002;2024-03-22T04:31:32;100410.72;;;9.17;100.00
20424;BME280;10371;49.042;8.002;2024-03-22T04:32:32;100405.59;;;9.15;100.00
20424;BME280;10371;49.042;8.002;2024-03-22T04:33:33;100409.97;;;9.15;100.00
20424;BME280;10371;49.042;8.002;2024-03-22T04:34:33;100401.56;;;9.11;100.00
20424;BME280;10371;49.042;8.002;2024-03-22T04:35:34;100400.69;;;9.11;100.00
20424;BME280;10371;49.042;8.002;2024-03-22T04:36:34;100398.09;;;9.11;100.00
20424;BME280;10371;49.042;8.002;2024-03-22T04:37:34;100396.44;;;9.10;100.00
20424;BME280;10371;49.042;8.002;2024-03-22T04:38:34;100390.44;;;9.09;100.00
20424;BME280;10371;49.042;8.002;2024-03-22T04:39:35;100389.59;;;9.09;100.00
20424;BME280;10371;49.042;8.002;2024-03-22T04:40:36;100387.00;;;9.09;100.00
20424;BME280;10371;49.042;8.002;2024-03-22T04:41:36;100388.78;;;9.08;100.00
20424;BME280;10371;49.042;8.002;2024-03-22T04:42:37;100387.22;;;9.06;100.00
20424;BME280;10371;49.042;8.002;2024-03-22T04:43:37;100390.63;;;9.06;100.00
20424;BME280;10371;49.042;8.002;2024-03-22T04:44:37;100393.31;;;9.05;100.00
20424;BME280;10371;49.042;8.002;2024-03-22T04:45:38;100389.06;;;9.04;100.00
20424;BME280;10371;49.042;8.002;2024-03-22T04:46:38;100390.91;;;9.02;100.00
20424;BME280;10371;49.042;8.002;2024-03-22T04:47:38;100391.13;;;8.99;100.00
20424;BME280;10371;49.042;8.002;2024-03-22T04:48:40;100386.03;;;8.97;100.00
20424;BME280;10371;49.042;8.002;2024-03-22T04:49:41;100385.94;;;8.99;100.00
20424;BME280;10371;49.042;8.002;2024-03-22T04:50:41;100387.06;;;8.94;100.00
20424;BME280;10371;49.042;8.002;2024-03-22T04:51:41;100389.88;;;8.91;100.00
20424;BME280;10371;49.042;8.002;2024-03-22T04:52:41;100387.44;;;8.88;100.00
20424;BME280;10371;49.042;8.002;2024-03-22T04:53:42;100390.16;;;8.87;100.00
20424;BME280;10371;49.042;8.002;2024-03-22T04:54:42;100391.06;;;8.86;100.00
20424;BME280;10371;49.042;8.002;2024-03-22T04:55:45;100394.81;;;8.82;100.00
20424;BME280;10371;49.042;8.002;2024-03-22T04:56:46;100395.84;;;8.79;100.00
20424;BME280;10371;49.042;8.002;2024-03-22T04:57:46;100396.66;;;8.80;100.00
20424;BME280;10371;49.042;8.002;2024-03-22T04:58:46;100397.41;;;8.82;100.00
20424;BME280;10371;49.042;8.002;2024-03-22T04:59:46;100390.56;;;8.81;100.00
20424;BME280;10371;49.042;8.002;2024-03-22T05:00:56;100386.66;;;8.73;100.00
20424;BME280;10371;49.042;8.002;2024-03-22T05:01:57;100393.38;;;8.63;100.00
20424;BME280;10371;49.042;8.002;2024-03-22T05:02:57;100393.41;;;8.49;100.00
20424;BME280;10371;49.042;8.002;2024-03-22T05:03:57;100387.31;;;8.50;100.00
20424;BME280;10371;49.042;8.002;2024-03-22T05:04:57;100391.56;;;8.51;100.00
20424;BME280;10371;49.042;8.002;2024-03-22T05:05:58;100384.53;;;8.53;100.00
20424;BME280;10371;49.042;8.002;2024-03-22T05:06:58;100386.28;;;8.53;100.00
20424;BME280;10371;49.042;8.002;2024-03-22T05:07:58;100385.44;;;8.52;100.00
20424;BME280;10371;49.042;8.002;2024-03-22T05:08:58;100386.28;;;8.53;100.00
20424;BME280;10371;49.042;8.002;2024-03-22T05:09:59;100387.94;;;8.54;100.00
20424;BME280;10371;49.042;8.002;2024-03-22T05:10:59;100383.78;;;8.51;100.00
20424;BME280;10371;49.042;8.002;2024-03-22T05:11:59;100375.25;;;8.49;100.00
20424;BME280;10371;49.042;8.002;2024-03-22T05:13:00;100385.63;;;8.49;100.00
20424;BME280;10371;49.042;8.002;2024-03-22T05:14:00;100380.34;;;8.50;100.00
20424;BME280;10371;49.042;8.002;2024-03-22T05:15:01;100378.66;;;8.49;100.00
20424;BME280;10371;49.042;8.002;2024-03-22T05:16:01;100373.47;;;8.49;100.00
20424;BME280;10371;49.042;8.002;2024-03-22T05:17:02;100378.78;;;8.48;100.00